Time,TemperatureF,DewpointF,PressureIn,WindDirection,WindDirectionDegrees,WindSpeedMPH,WindSpeedGustMPH,Humidity,HourlyPrecipIn,Conditions,Clouds,dailyrainin,SoftwareType,DateUTC
2013-01-19 00:01:00,20.7,9.4,30.27,East,90,1.1,4.3,61,0.00,,,0.00,WUHU216HW,2013-01-19 05:01:00,
2013-01-19 00:03:00,20.7,9.4,30.27,ESE,113,0.4,4.3,61,0.00,,,0.00,WUHU216HW,2013-01-19 05:03:00,
2013-01-19 00:08:00,20.7,9.4,30.27,WSW,248,0.4,2.2,61,0.00,,,0.00,WUHU216HW,2013-01-19 05:08:00,
2013-01-19 00:13:00,20.7,9.4,30.27,SE,135,1.1,3.8,61,0.00,,,0.00,WUHU216HW,2013-01-19 05:13:00,
2013-01-19 00:18:00,20.7,9.4,30.27,SW,225,2.5,4.3,61,0.00,,,0.00,WUHU216HW,2013-01-19 05:18:00,
2013-01-19 00:23:00,20.9,9.6,30.27,SSW,203,0.4,4.3,61,0.00,,,0.00,WUHU216HW,2013-01-19 05:23:00,
2013-01-19 00:28:00,20.9,9.6,30.27,South,180,0.9,3.1,61,0.00,,,0.00,WUHU216HW,2013-01-19 05:28:00,
2013-01-19 00:33:00,21.0,9.7,30.27,SE,135,4.0,4.7,61,0.00,,,0.00,WUHU216HW,2013-01-19 05:33:00,
2013-01-19 00:38:00,21.0,9.7,30.27,East,90,1.1,4.7,61,0.00,,,0.00,WUHU216HW,2013-01-19 05:38:00,
2013-01-19 00:43:00,21.0,9.7,30.26,SSE,158,0.7,4.0,61,0.00,,,0.00,WUHU216HW,2013-01-19 05:43:00,
2013-01-19 00:48:00,21.2,9.9,30.26,ESE,113,0.9,3.4,61,0.00,,,0.00,WUHU216HW,2013-01-19 05:48:00,
2013-01-19 00:54:00,21.2,9.9,30.26,SE,135,2.2,4.7,61,0.00,,,0.00,WUHU216HW,2013-01-19 05:54:00,
2013-01-19 00:59:00,21.4,10.1,30.26,SE,135,1.3,4.7,61,0.00,,,0.00,WUHU216HW,2013-01-19 05:59:00,
2013-01-19 01:04:00,21.4,10.1,30.26,East,90,0.4,3.8,61,0.00,,,0.00,WUHU216HW,2013-01-19 06:04:00,
2013-01-19 01:09:00,21.4,10.1,30.26,SE,135,1.8,4.7,61,0.00,,,0.00,WUHU216HW,2013-01-19 06:09:00,
2013-01-19 01:14:00,21.4,10.1,30.26,WSW,248,1.8,4.7,61,0.00,,,0.00,WUHU216HW,2013-01-19 06:14:00,
2013-01-19 01:19:00,21.4,10.1,30.26,SE,135,1.3,4.7,61,0.00,,,0.00,WUHU216HW,2013-01-19 06:19:00,
2013-01-19 01:24:00,21.4,10.1,30.26,SE,135,0.2,4.7,61,0.00,,,0.00,WUHU216HW,2013-01-19 06:24:00,
2013-01-19 01:29:00,21.6,10.3,30.26,ENE,68,2.5,3.4,61,0.00,,,0.00,WUHU216HW,2013-01-19 06:29:00,
2013-01-19 01:34:00,21.8,10.4,30.26,WSW,248,3.4,4.0,61,0.00,,,0.00,WUHU216HW,2013-01-19 06:34:00,
2013-01-19 01:39:00,21.8,10.4,30.26,South,180,0.4,4.0,61,0.00,,,0.00,WUHU216HW,2013-01-19 06:39:00,
2013-01-19 01:44:00,21.8,10.4,30.25,SSW,203,4.0,5.4,61,0.00,,,0.00,WUHU216HW,2013-01-19 06:44:00,
2013-01-19 01:49:00,21.9,10.5,30.25,SE,135,0.9,5.4,61,0.00,,,0.00,WUHU216HW,2013-01-19 06:49:00,
2013-01-19 01:54:00,21.9,10.9,30.25,SE,135,2.7,5.8,62,0.00,,,0.00,WUHU216HW,2013-01-19 06:54:00,
2013-01-19 01:59:00,21.9,10.5,30.25,SE,135,1.3,5.8,61,0.00,,,0.00,WUHU216HW,2013-01-19 06:59:00,
2013-01-19 02:04:00,22.1,10.7,30.25,SSE,158,0.9,3.4,61,0.00,,,0.00,WUHU216HW,2013-01-19 07:04:00,
2013-01-19 02:09:00,22.1,10.7,30.25,South,180,1.8,4.7,61,0.00,,,0.00,WUHU216HW,2013-01-19 07:09:00,
2013-01-19 02:14:00,22.1,10.7,30.24,SSE,158,4.3,4.7,61,0.00,,,0.00,WUHU216HW,2013-01-19 07:14:00,
2013-01-19 02:19:00,22.1,11.1,30.24,SSE,158,1.8,4.3,62,0.00,,,0.00,WUHU216HW,2013-01-19 07:19:00,
2013-01-19 02:25:00,22.1,11.1,30.24,ESE,113,1.3,4.5,62,0.00,,,0.00,WUHU216HW,2013-01-19 07:25:00,
2013-01-19 02:30:00,22.3,11.3,30.23,SE,135,2.0,5.4,62,0.00,,,0.00,WUHU216HW,2013-01-19 07:30:00,
2013-01-19 02:35:00,22.3,11.3,30.24,SSW,203,1.8,5.4,62,0.00,,,0.00,WUHU216HW,2013-01-19 07:35:00,
2013-01-19 02:40:00,22.3,11.3,30.23,SSE,158,2.7,4.5,62,0.00,,,0.00,WUHU216HW,2013-01-19 07:40:00,
2013-01-19 02:45:00,22.3,11.3,30.23,WSW,248,2.5,4.0,62,0.00,,,0.00,WUHU216HW,2013-01-19 07:45:00,
2013-01-19 02:50:00,22.5,11.5,30.23,WSW,248,0.4,4.3,62,0.00,,,0.00,WUHU216HW,2013-01-19 07:50:00,
2013-01-19 02:55:00,22.5,11.5,30.23,ESE,113,2.0,6.3,62,0.00,,,0.00,WUHU216HW,2013-01-19 07:55:00,
2013-01-19 03:00:00,22.5,11.5,30.23,SSW,203,4.0,6.3,62,0.00,,,0.00,WUHU216HW,2013-01-19 08:00:00,
2013-01-19 03:05:00,22.5,11.5,30.22,South,180,0.2,7.8,62,0.00,,,0.00,WUHU216HW,2013-01-19 08:05:00,
2013-01-19 03:10:00,22.5,11.8,30.22,SSE,158,1.6,7.8,63,0.00,,,0.00,WUHU216HW,2013-01-19 08:10:00,
2013-01-19 03:15:00,22.5,11.8,30.22,SSW,203,1.6,6.3,63,0.00,,,0.00,WUHU216HW,2013-01-19 08:15:00,
2013-01-19 03:20:00,22.5,11.8,30.22,SSW,203,1.1,6.3,63,0.00,,,0.00,WUHU216HW,2013-01-19 08:20:00,
2013-01-19 03:26:00,22.5,11.8,30.21,SE,135,3.4,5.4,63,0.00,,,0.00,WUHU216HW,2013-01-19 08:26:00,
2013-01-19 03:31:00,22.5,11.8,30.21,SSW,203,1.3,5.4,63,0.00,,,0.00,WUHU216HW,2013-01-19 08:31:00,
2013-01-19 03:36:00,22.5,11.8,30.21,ESE,113,1.1,3.4,63,0.00,,,0.00,WUHU216HW,2013-01-19 08:36:00,
2013-01-19 03:41:00,22.5,11.8,30.21,SE,135,1.1,3.1,63,0.00,,,0.00,WUHU216HW,2013-01-19 08:41:00,
2013-01-19 03:46:00,22.5,12.2,30.21,SSW,203,0.9,2.7,64,0.00,,,0.00,WUHU216HW,2013-01-19 08:46:00,
2013-01-19 03:51:00,22.5,12.2,30.21,WSW,248,1.1,2.9,64,0.00,,,0.00,WUHU216HW,2013-01-19 08:51:00,
2013-01-19 03:56:00,22.5,12.2,30.21,ESE,113,0.4,4.7,64,0.00,,,0.00,WUHU216HW,2013-01-19 08:56:00,
2013-01-19 04:01:00,22.5,12.2,30.21,WSW,248,6.9,6.9,64,0.00,,,0.00,WUHU216HW,2013-01-19 09:01:00,
2013-01-19 04:06:00,22.5,12.2,30.21,West,270,2.2,6.9,64,0.00,,,0.00,WUHU216HW,2013-01-19 09:06:00,
2013-01-19 04:11:00,22.5,12.6,30.20,ESE,113,0.7,6.9,65,0.00,,,0.00,WUHU216HW,2013-01-19 09:11:00,
2013-01-19 04:16:00,22.5,12.6,30.20,WSW,248,0.7,5.1,65,0.00,,,0.00,WUHU216HW,2013-01-19 09:16:00,
2013-01-19 04:21:00,22.5,12.6,30.20,WSW,248,0.9,3.4,65,0.00,,,0.00,WUHU216HW,2013-01-19 09:21:00,
2013-01-19 04:26:00,22.5,12.6,30.20,SSE,158,1.1,3.4,65,0.00,,,0.00,WUHU216HW,2013-01-19 09:26:00,
2013-01-19 04:31:00,22.3,12.4,30.20,SE,135,0.7,2.5,65,0.00,,,0.00,WUHU216HW,2013-01-19 09:31:00,
2013-01-19 04:37:00,22.3,12.7,30.20,SSW,203,1.8,5.1,66,0.00,,,0.00,WUHU216HW,2013-01-19 09:37:00,
2013-01-19 04:42:00,22.3,12.7,30.20,SW,225,0.7,5.1,66,0.00,,,0.00,WUHU216HW,2013-01-19 09:42:00,
2013-01-19 04:47:00,22.5,12.9,30.20,SE,135,1.6,4.9,66,0.00,,,0.00,WUHU216HW,2013-01-19 09:47:00,
2013-01-19 04:52:00,22.5,12.9,30.20,ESE,113,0.7,4.9,66,0.00,,,0.00,WUHU216HW,2013-01-19 09:52:00,
2013-01-19 04:57:00,22.5,12.9,30.19,South,180,0.4,2.7,66,0.00,,,0.00,WUHU216HW,2013-01-19 09:57:00,
2013-01-19 05:02:00,22.5,12.9,30.20,SSE,158,2.9,2.9,66,0.00,,,0.00,WUHU216HW,2013-01-19 10:02:00,
2013-01-19 05:07:00,22.5,13.2,30.20,South,180,5.1,5.1,67,0.00,,,0.00,WUHU216HW,2013-01-19 10:07:00,
2013-01-19 05:12:00,22.7,13.4,30.20,NNE,23,0.0,5.1,67,0.00,,,0.00,WUHU216HW,2013-01-19 10:12:00,
2013-01-19 05:17:00,22.8,13.5,30.20,ESE,113,1.1,3.1,67,0.00,,,0.00,WUHU216HW,2013-01-19 10:17:00,
2013-01-19 05:22:00,22.8,13.5,30.19,South,180,1.1,3.1,67,0.00,,,0.00,WUHU216HW,2013-01-19 10:22:00,
2013-01-19 05:28:00,22.8,13.5,30.19,SE,135,1.1,4.0,67,0.00,,,0.00,WUHU216HW,2013-01-19 10:28:00,
2013-01-19 05:33:00,23.2,14.6,30.18,ENE,68,0.7,4.0,69,0.00,,,0.00,WUHU216HW,2013-01-19 10:33:00,
2013-01-19 05:38:00,23.4,14.4,30.18,SE,135,0.7,3.4,68,0.00,,,0.00,WUHU216HW,2013-01-19 10:38:00,
2013-01-19 05:43:00,23.6,15.0,30.18,WSW,248,3.6,4.0,69,0.00,,,0.00,WUHU216HW,2013-01-19 10:43:00,
2013-01-19 05:48:00,23.7,15.4,30.18,South,180,5.4,7.6,70,0.00,,,0.00,WUHU216HW,2013-01-19 10:48:00,
2013-01-19 05:53:00,23.9,15.6,30.18,SSE,158,1.1,7.6,70,0.00,,,0.00,WUHU216HW,2013-01-19 10:53:00,
2013-01-19 05:58:00,23.9,15.6,30.18,SSE,158,4.3,4.3,70,0.00,,,0.00,WUHU216HW,2013-01-19 10:58:00,
2013-01-19 06:03:00,24.1,15.8,30.18,South,180,2.9,5.1,70,0.00,,,0.00,WUHU216HW,2013-01-19 11:03:00,
2013-01-19 06:08:00,24.3,16.0,30.18,South,180,1.8,5.1,70,0.00,,,0.00,WUHU216HW,2013-01-19 11:08:00,
2013-01-19 06:13:00,24.5,16.2,30.18,SSE,158,1.8,5.1,70,0.00,,,0.00,WUHU216HW,2013-01-19 11:13:00,
2013-01-19 06:15:00,24.5,16.2,30.19,South,180,2.7,4.9,70,0.00,,,0.00,WUHU216HW,2013-01-19 11:15:00,
2013-01-19 06:21:00,24.6,16.3,30.19,SSW,203,0.9,4.0,70,0.00,,,0.00,WUHU216HW,2013-01-19 11:21:00,
2013-01-19 06:28:00,24.8,16.8,30.18,SSE,158,1.1,3.8,71,0.00,,,0.00,WUHU216HW,2013-01-19 11:28:00,
2013-01-19 06:34:00,25.0,16.6,30.18,SW,225,2.5,3.4,70,0.00,,,0.00,WUHU216HW,2013-01-19 11:34:00,
2013-01-19 06:40:00,25.0,17.0,30.18,ESE,113,3.8,6.3,71,0.00,,,0.00,WUHU216HW,2013-01-19 11:40:00,
2013-01-19 06:47:00,25.2,17.2,30.18,SSW,203,2.0,6.3,71,0.00,,,0.00,WUHU216HW,2013-01-19 11:47:00,
2013-01-19 06:53:00,25.2,17.2,30.18,SSE,158,2.9,6.3,71,0.00,,,0.00,WUHU216HW,2013-01-19 11:53:00,
2013-01-19 07:00:00,25.4,17.4,30.17,SW,225,4.0,6.3,71,0.00,,,0.00,WUHU216HW,2013-01-19 12:00:00,
2013-01-19 07:06:00,25.4,17.7,30.17,SSW,203,1.8,4.7,72,0.00,,,0.00,WUHU216HW,2013-01-19 12:06:00,
2013-01-19 07:13:00,25.4,17.7,30.17,SE,135,2.7,6.0,72,0.00,,,0.00,WUHU216HW,2013-01-19 12:13:00,
2013-01-19 07:19:00,25.5,17.8,30.17,WSW,248,1.1,7.6,72,0.00,,,0.00,WUHU216HW,2013-01-19 12:19:00,
2013-01-19 07:26:00,25.5,17.8,30.17,NNW,338,2.5,7.6,72,0.00,,,0.00,WUHU216HW,2013-01-19 12:26:00,
2013-01-19 07:47:00,25.7,18.0,30.16,SE,135,2.5,7.4,72,0.00,,,0.00,WUHU216HW,2013-01-19 12:47:00,
2013-01-19 07:48:00,25.7,18.0,30.16,SE,135,2.5,7.4,72,0.00,,,0.00,WUHU216HW,2013-01-19 12:48:00,
2013-01-19 07:53:00,25.7,18.3,30.15,ESE,113,0.7,6.7,73,0.00,,,0.00,WUHU216HW,2013-01-19 12:53:00,
2013-01-19 07:58:00,25.9,18.2,30.15,West,270,3.4,5.4,72,0.00,,,0.00,WUHU216HW,2013-01-19 12:58:00,
2013-01-19 08:04:00,26.1,18.7,30.16,SSE,158,3.1,8.1,73,0.00,,,0.00,WUHU216HW,2013-01-19 13:04:00,
2013-01-19 08:09:00,26.1,18.7,30.17,SSW,203,0.4,8.1,73,0.00,,,0.00,WUHU216HW,2013-01-19 13:09:00,
2013-01-19 08:14:00,26.1,18.7,30.17,SSE,158,2.2,8.1,73,0.00,,,0.00,WUHU216HW,2013-01-19 13:14:00,
2013-01-19 08:19:00,26.3,18.9,30.17,SSE,158,1.8,8.1,73,0.00,,,0.00,WUHU216HW,2013-01-19 13:19:00,
2013-01-19 08:24:00,26.3,18.9,30.17,SSW,203,2.0,4.9,73,0.00,,,0.00,WUHU216HW,2013-01-19 13:24:00,
2013-01-19 08:29:00,26.4,19.0,30.17,SSE,158,1.1,4.7,73,0.00,,,0.00,WUHU216HW,2013-01-19 13:29:00,
2013-01-19 08:34:00,26.4,19.0,30.17,SE,135,2.5,4.7,73,0.00,,,0.00,WUHU216HW,2013-01-19 13:34:00,
2013-01-19 08:39:00,26.6,19.2,30.17,SE,135,3.4,5.4,73,0.00,,,0.00,WUHU216HW,2013-01-19 13:39:00,
2013-01-19 08:44:00,26.6,19.2,30.17,SSE,158,2.9,5.4,73,0.00,,,0.00,WUHU216HW,2013-01-19 13:44:00,
2013-01-19 08:49:00,26.8,19.3,30.17,South,180,2.0,4.3,73,0.00,,,0.00,WUHU216HW,2013-01-19 13:49:00,
2013-01-19 08:54:00,27.0,19.5,30.16,SSE,158,1.3,4.3,73,0.00,,,0.00,WUHU216HW,2013-01-19 13:54:00,
2013-01-19 08:59:00,27.2,19.7,30.17,South,180,1.3,3.1,73,0.00,,,0.00,WUHU216HW,2013-01-19 13:59:00,
2013-01-19 09:04:00,27.3,19.8,30.16,SE,135,2.2,4.7,73,0.00,,,0.00,WUHU216HW,2013-01-19 14:04:00,
2013-01-19 09:09:00,27.5,20.0,30.16,SSW,203,5.4,5.4,73,0.00,,,0.00,WUHU216HW,2013-01-19 14:09:00,
2013-01-19 09:14:00,27.9,20.4,30.16,SE,135,3.4,5.8,73,0.00,,,0.00,WUHU216HW,2013-01-19 14:14:00,
2013-01-19 09:19:00,28.1,20.6,30.16,SSW,203,6.3,6.3,73,0.00,,,0.00,WUHU216HW,2013-01-19 14:19:00,
2013-01-19 09:24:00,28.4,20.9,30.17,SSW,203,1.8,6.3,73,0.00,,,0.00,WUHU216HW,2013-01-19 14:24:00,
2013-01-19 09:29:00,28.6,21.1,30.17,WNW,293,3.4,6.3,73,0.00,,,0.00,WUHU216HW,2013-01-19 14:29:00,
2013-01-19 09:34:00,28.8,21.3,30.17,SSE,158,2.0,4.0,73,0.00,,,0.00,WUHU216HW,2013-01-19 14:34:00,
2013-01-19 09:39:00,29.0,21.5,30.17,South,180,6.9,6.9,73,0.00,,,0.00,WUHU216HW,2013-01-19 14:39:00,
2013-01-19 09:44:00,29.3,21.4,30.16,SSW,203,5.1,6.9,72,0.00,,,0.00,WUHU216HW,2013-01-19 14:44:00,
2013-01-19 09:49:00,29.5,21.6,30.16,SW,225,1.6,6.9,72,0.00,,,0.00,WUHU216HW,2013-01-19 14:49:00,
2013-01-19 09:54:00,29.7,21.8,30.16,ESE,113,4.0,5.4,72,0.00,,,0.00,WUHU216HW,2013-01-19 14:54:00,
2013-01-19 10:00:00,30.0,22.1,30.16,SSW,203,7.8,7.8,72,0.00,,,0.00,WUHU216HW,2013-01-19 15:00:00,
2013-01-19 10:05:00,30.0,22.1,30.15,SE,135,1.1,7.8,72,0.00,,,0.00,WUHU216HW,2013-01-19 15:05:00,
2013-01-19 10:10:00,30.4,22.2,30.15,West,270,3.8,5.8,71,0.00,,,0.00,WUHU216HW,2013-01-19 15:10:00,
2013-01-19 10:15:00,30.8,22.6,30.15,SSE,158,3.4,4.3,71,0.00,,,0.00,WUHU216HW,2013-01-19 15:15:00,
2013-01-19 10:20:00,30.9,22.7,30.15,NNE,23,2.9,4.3,71,0.00,,,0.00,WUHU216HW,2013-01-19 15:20:00,
2013-01-19 10:25:00,31.1,22.5,30.14,NNW,338,3.4,3.4,70,0.00,,,0.00,WUHU216HW,2013-01-19 15:25:00,
2013-01-19 10:30:00,31.5,22.9,30.13,SW,225,4.0,4.0,70,0.00,,,0.00,WUHU216HW,2013-01-19 15:30:00,
2013-01-19 10:35:00,31.8,23.2,30.13,SSE,158,1.3,5.8,70,0.00,,,0.00,WUHU216HW,2013-01-19 15:35:00,
2013-01-19 10:40:00,32.0,23.4,30.13,South,180,2.0,5.8,70,0.00,,,0.00,WUHU216HW,2013-01-19 15:40:00,
2013-01-19 10:45:00,32.2,23.6,30.13,SSW,203,2.5,5.4,70,0.00,,,0.00,WUHU216HW,2013-01-19 15:45:00,
2013-01-19 10:50:00,32.6,24.0,30.13,WNW,293,1.8,4.0,70,0.00,,,0.00,WUHU216HW,2013-01-19 15:50:00,
2013-01-19 10:55:00,32.9,24.2,30.13,ESE,113,1.8,4.0,70,0.00,,,0.00,WUHU216HW,2013-01-19 15:55:00,
2013-01-19 11:00:00,33.1,24.1,30.12,SSW,203,7.8,7.8,69,0.00,,,0.00,WUHU216HW,2013-01-19 16:00:00,
2013-01-19 11:05:00,33.3,24.3,30.12,SSW,203,6.3,7.8,69,0.00,,,0.00,WUHU216HW,2013-01-19 16:05:00,
2013-01-19 11:11:00,33.6,24.6,30.12,WSW,248,2.7,7.8,69,0.01,,,0.01,WUHU216HW,2013-01-19 16:11:00,
2013-01-19 11:16:00,33.8,24.4,30.11,ESE,113,4.5,7.2,68,0.01,,,0.01,WUHU216HW,2013-01-19 16:16:00,
2013-01-19 11:21:00,34.0,24.6,30.11,WSW,248,3.4,7.2,68,0.01,,,0.01,WUHU216HW,2013-01-19 16:21:00,
2013-01-19 11:26:00,34.4,25.0,30.11,SSW,203,2.7,4.7,68,0.01,,,0.01,WUHU216HW,2013-01-19 16:26:00,
2013-01-19 11:31:00,34.7,24.9,30.10,SSW,203,5.4,5.4,67,0.01,,,0.01,WUHU216HW,2013-01-19 16:31:00,
2013-01-19 11:36:00,35.1,25.3,30.10,WSW,248,4.5,6.0,67,0.01,,,0.01,WUHU216HW,2013-01-19 16:36:00,
2013-01-19 11:41:00,35.4,24.9,30.10,West,270,4.3,6.0,65,0.01,,,0.01,WUHU216HW,2013-01-19 16:41:00,
2013-01-19 11:46:00,35.6,25.1,30.09,WNW,293,5.4,6.3,65,0.01,,,0.01,WUHU216HW,2013-01-19 16:46:00,
2013-01-19 11:51:00,35.8,24.9,30.08,WSW,248,3.4,6.3,64,0.01,,,0.01,WUHU216HW,2013-01-19 16:51:00,
2013-01-19 11:56:00,36.2,25.3,30.08,South,180,2.9,4.3,64,0.01,,,0.01,WUHU216HW,2013-01-19 16:56:00,
2013-01-19 12:01:00,36.5,25.2,30.08,WSW,248,6.5,8.5,63,0.01,,,0.01,WUHU216HW,2013-01-19 17:01:00,
2013-01-19 12:07:00,36.5,25.2,30.07,West,270,2.5,8.5,63,0.00,,,0.01,WUHU216HW,2013-01-19 17:07:00,
2013-01-19 12:12:00,36.9,25.5,30.07,SSW,203,1.8,6.9,63,0.00,,,0.01,WUHU216HW,2013-01-19 17:12:00,
2013-01-19 12:17:00,36.9,25.5,30.06,SW,225,5.1,5.8,63,0.01,,,0.02,WUHU216HW,2013-01-19 17:17:00,
2013-01-19 12:22:00,37.4,26.0,30.06,WSW,248,6.7,6.7,63,0.01,,,0.02,WUHU216HW,2013-01-19 17:22:00,
2013-01-19 12:27:00,37.8,26.0,30.06,SSE,158,3.4,6.7,62,0.01,,,0.02,WUHU216HW,2013-01-19 17:27:00,
2013-01-19 12:32:00,38.0,26.2,30.05,SSE,158,1.8,8.1,62,0.01,,,0.02,WUHU216HW,2013-01-19 17:32:00,
2013-01-19 12:37:00,38.1,26.3,30.05,SSE,158,6.5,8.1,62,0.01,,,0.02,WUHU216HW,2013-01-19 17:37:00,
2013-01-19 12:42:00,38.3,26.1,30.05,ESE,113,3.1,6.5,61,0.01,,,0.02,WUHU216HW,2013-01-19 17:42:00,
2013-01-19 12:47:00,38.5,25.9,30.05,SSW,203,8.9,8.9,60,0.01,,,0.02,WUHU216HW,2013-01-19 17:47:00,
2013-01-19 12:53:00,38.5,25.5,30.05,SSW,203,1.6,8.9,59,0.02,,,0.03,WUHU216HW,2013-01-19 17:53:00,
2013-01-19 12:58:00,38.7,25.6,30.05,SW,225,2.5,8.9,59,0.02,,,0.03,WUHU216HW,2013-01-19 17:58:00,
2013-01-19 13:03:00,38.7,26.1,30.04,SSW,203,1.1,2.5,60,0.02,,,0.03,WUHU216HW,2013-01-19 18:03:00,
2013-01-19 13:09:00,38.7,26.5,30.04,East,90,1.8,2.5,61,0.02,,,0.03,WUHU216HW,2013-01-19 18:09:00,
2013-01-19 13:14:00,38.9,26.3,30.04,South,180,4.5,5.1,60,0.02,,,0.04,WUHU216HW,2013-01-19 18:14:00,
2013-01-19 13:19:00,39.0,26.3,30.04,South,180,1.6,5.1,60,0.02,,,0.04,WUHU216HW,2013-01-19 18:19:00,
2013-01-19 13:25:00,39.2,26.5,30.04,SSE,158,4.9,4.9,60,0.02,,,0.04,WUHU216HW,2013-01-19 18:25:00,
2013-01-19 13:30:00,39.2,26.5,30.04,SW,225,1.8,4.9,60,0.02,,,0.04,WUHU216HW,2013-01-19 18:30:00,
2013-01-19 13:35:00,39.2,26.5,30.04,SW,225,1.8,4.9,60,0.02,,,0.04,WUHU216HW,2013-01-19 18:35:00,
2013-01-19 13:40:00,39.2,26.5,30.04,SW,225,1.8,1.8,60,0.02,,,0.04,WUHU216HW,2013-01-19 18:40:00,
2013-01-19 13:45:00,39.4,25.9,30.03,SSW,203,3.1,3.1,58,0.02,,,0.04,WUHU216HW,2013-01-19 18:45:00,
2013-01-19 13:50:00,39.4,25.9,30.03,SSW,203,3.1,3.1,58,0.01,,,0.04,WUHU216HW,2013-01-19 18:50:00,
2013-01-19 13:55:00,39.4,25.9,30.03,SSW,203,3.1,3.1,58,0.01,,,0.04,WUHU216HW,2013-01-19 18:55:00,
2013-01-19 14:00:00,39.8,26.3,30.02,SE,135,6.3,6.3,58,0.02,,,0.05,WUHU216HW,2013-01-19 19:00:00,
2013-01-19 14:05:00,39.9,26.4,30.02,WSW,248,0.7,6.3,58,0.03,,,0.06,WUHU216HW,2013-01-19 19:05:00,
2013-01-19 14:10:00,39.9,26.4,30.02,West,270,2.0,6.3,58,0.02,,,0.06,WUHU216HW,2013-01-19 19:10:00,
2013-01-19 14:15:00,40.1,26.5,30.02,SW,225,0.4,4.0,58,0.02,,,0.06,WUHU216HW,2013-01-19 19:15:00,
2013-01-19 14:20:00,40.3,26.7,30.02,South,180,0.7,4.0,58,0.02,,,0.06,WUHU216HW,2013-01-19 19:20:00,
2013-01-19 14:26:00,40.5,26.5,30.02,SSE,158,2.0,4.0,57,0.02,,,0.06,WUHU216HW,2013-01-19 19:26:00,
2013-01-19 14:31:00,40.7,26.7,30.01,SE,135,2.2,4.7,57,0.02,,,0.06,WUHU216HW,2013-01-19 19:31:00,
2013-01-19 14:36:00,40.7,26.2,30.01,West,270,3.4,4.7,56,0.02,,,0.06,WUHU216HW,2013-01-19 19:36:00,
2013-01-19 14:42:00,40.8,26.8,30.01,WSW,248,3.4,6.9,57,0.02,,,0.06,WUHU216HW,2013-01-19 19:42:00,
2013-01-19 14:47:00,41.0,26.5,30.00,SW,225,2.9,6.9,56,0.02,,,0.06,WUHU216HW,2013-01-19 19:47:00,
2013-01-19 14:52:00,41.0,26.1,30.00,WNW,293,2.2,7.4,55,0.03,,,0.08,WUHU216HW,2013-01-19 19:52:00,
2013-01-19 14:57:00,41.0,26.1,30.00,ESE,113,0.9,7.4,55,0.02,,,0.08,WUHU216HW,2013-01-19 19:57:00,
2013-01-19 15:02:00,41.2,26.3,30.00,SW,225,4.7,5.6,55,0.01,,,0.08,WUHU216HW,2013-01-19 20:02:00,
2013-01-19 15:07:00,41.2,26.3,30.00,SSE,158,5.4,5.6,55,0.01,,,0.08,WUHU216HW,2013-01-19 20:07:00,
2013-01-19 15:13:00,41.4,26.0,30.00,South,180,3.6,5.4,54,0.01,,,0.08,WUHU216HW,2013-01-19 20:13:00,
2013-01-19 15:18:00,41.4,25.5,30.00,SSW,203,4.0,6.5,53,0.01,,,0.08,WUHU216HW,2013-01-19 20:18:00,
2013-01-19 15:23:00,41.6,26.2,30.00,West,270,5.4,5.4,54,0.01,,,0.08,WUHU216HW,2013-01-19 20:23:00,
2013-01-19 15:28:00,41.4,26.0,30.00,SW,225,2.7,5.4,54,0.02,,,0.08,WUHU216HW,2013-01-19 20:28:00,
2013-01-19 15:33:00,41.4,26.0,30.00,SW,225,1.8,5.4,54,0.02,,,0.08,WUHU216HW,2013-01-19 20:33:00,
2013-01-19 15:38:00,41.6,25.7,30.00,WSW,248,5.4,5.4,53,0.02,,,0.08,WUHU216HW,2013-01-19 20:38:00,
2013-01-19 15:43:00,41.6,25.7,29.99,South,180,2.5,6.7,53,0.02,,,0.08,WUHU216HW,2013-01-19 20:43:00,
2013-01-19 15:49:00,41.6,25.7,29.99,SSE,158,0.2,6.7,53,0.01,,,0.08,WUHU216HW,2013-01-19 20:49:00,
2013-01-19 15:54:00,41.4,26.0,29.99,SE,135,3.1,4.0,54,0.01,,,0.08,WUHU216HW,2013-01-19 20:54:00,
2013-01-19 15:59:00,41.4,25.5,29.99,SSE,158,0.9,3.1,53,0.01,,,0.08,WUHU216HW,2013-01-19 20:59:00,
2013-01-19 16:04:00,41.4,25.5,29.98,South,180,0.4,3.1,53,0.01,,,0.08,WUHU216HW,2013-01-19 21:04:00,
2013-01-19 16:09:00,41.4,25.5,29.98,SE,135,6.9,6.9,53,0.01,,,0.08,WUHU216HW,2013-01-19 21:09:00,
2013-01-19 16:14:00,41.4,25.5,29.98,SW,225,4.5,6.9,53,0.01,,,0.08,WUHU216HW,2013-01-19 21:14:00,
2013-01-19 16:19:00,41.4,25.5,29.98,SSW,203,2.2,6.9,53,0.01,,,0.08,WUHU216HW,2013-01-19 21:19:00,
2013-01-19 16:24:00,41.4,25.5,29.98,SW,225,1.8,4.5,53,0.00,,,0.08,WUHU216HW,2013-01-19 21:24:00,
2013-01-19 16:29:00,41.4,25.5,29.98,SW,225,1.8,3.8,53,0.00,,,0.08,WUHU216HW,2013-01-19 21:29:00,
2013-01-19 16:35:00,41.4,25.5,29.98,SW,225,1.1,4.7,53,0.00,,,0.08,WUHU216HW,2013-01-19 21:35:00,
2013-01-19 16:40:00,41.4,25.5,29.97,WSW,248,0.9,4.7,53,0.00,,,0.08,WUHU216HW,2013-01-19 21:40:00,
2013-01-19 16:45:00,41.4,25.5,29.97,SSE,158,0.2,4.0,53,0.00,,,0.08,WUHU216HW,2013-01-19 21:45:00,
2013-01-19 16:50:00,41.2,25.3,29.97,East,90,2.9,5.1,53,0.00,,,0.08,WUHU216HW,2013-01-19 21:50:00,
2013-01-19 16:56:00,41.2,25.3,29.97,SSW,203,0.7,5.1,53,0.00,,,0.08,WUHU216HW,2013-01-19 21:56:00,
2013-01-19 17:02:00,41.0,25.2,29.97,SE,135,1.1,2.7,53,0.00,,,0.08,WUHU216HW,2013-01-19 22:02:00,
2013-01-19 17:08:00,40.8,25.0,29.97,SSE,158,1.8,2.7,53,0.00,,,0.08,WUHU216HW,2013-01-19 22:08:00,
2013-01-19 17:13:00,40.8,25.0,29.97,SE,135,2.5,2.5,53,0.00,,,0.08,WUHU216HW,2013-01-19 22:13:00,
2013-01-19 17:18:00,40.7,25.3,29.97,SSE,158,0.2,2.5,54,0.00,,,0.08,WUHU216HW,2013-01-19 22:18:00,
2013-01-19 17:23:00,40.7,25.3,29.97,SSE,158,4.5,4.5,54,0.00,,,0.08,WUHU216HW,2013-01-19 22:23:00,
2013-01-19 17:28:00,40.7,25.3,29.97,SE,135,0.4,4.5,54,0.00,,,0.08,WUHU216HW,2013-01-19 22:28:00,
2013-01-19 17:33:00,40.5,25.2,29.97,SSE,158,0.4,2.5,54,0.00,,,0.08,WUHU216HW,2013-01-19 22:33:00,
2013-01-19 17:39:00,40.5,25.2,29.97,SE,135,1.8,2.5,54,0.00,,,0.08,WUHU216HW,2013-01-19 22:39:00,
2013-01-19 17:44:00,40.3,25.4,29.96,SSE,158,2.0,2.0,55,0.00,,,0.08,WUHU216HW,2013-01-19 22:44:00,
2013-01-19 17:49:00,40.1,25.2,29.96,SW,225,0.9,3.1,55,0.00,,,0.08,WUHU216HW,2013-01-19 22:49:00,
2013-01-19 17:54:00,40.1,25.7,29.96,South,180,0.4,3.1,56,0.00,,,0.08,WUHU216HW,2013-01-19 22:54:00,
2013-01-19 17:59:00,39.9,25.5,29.96,SSE,158,2.5,4.0,56,0.00,,,0.08,WUHU216HW,2013-01-19 22:59:00,
2013-01-19 18:04:00,39.9,25.5,29.96,SE,135,4.0,4.3,56,0.00,,,0.08,WUHU216HW,2013-01-19 23:04:00,
2013-01-19 18:10:00,39.9,25.9,29.96,WNW,293,1.1,4.5,57,0.00,,,0.08,WUHU216HW,2013-01-19 23:10:00,
2013-01-19 18:15:00,39.8,25.8,29.96,SSE,158,5.6,5.6,57,0.00,,,0.08,WUHU216HW,2013-01-19 23:15:00,
2013-01-19 18:20:00,39.8,25.8,29.96,SE,135,1.8,5.6,57,0.00,,,0.08,WUHU216HW,2013-01-19 23:20:00,
2013-01-19 18:25:00,39.8,25.8,29.96,SSE,158,1.1,5.6,57,0.00,,,0.08,WUHU216HW,2013-01-19 23:25:00,
2013-01-19 18:30:00,39.8,26.3,29.96,SE,135,4.0,4.3,58,0.00,,,0.08,WUHU216HW,2013-01-19 23:30:00,
2013-01-19 18:35:00,39.8,26.3,29.96,SE,135,4.5,6.7,58,0.00,,,0.08,WUHU216HW,2013-01-19 23:35:00,
2013-01-19 18:40:00,39.8,26.3,29.96,SSE,158,2.5,6.7,58,0.00,,,0.08,WUHU216HW,2013-01-19 23:40:00,
2013-01-19 18:45:00,39.6,26.1,29.96,SE,135,4.7,6.3,58,0.00,,,0.08,WUHU216HW,2013-01-19 23:45:00,
2013-01-19 18:50:00,39.6,26.1,29.96,SSE,158,2.9,6.3,58,0.00,,,0.08,WUHU216HW,2013-01-19 23:50:00,
2013-01-19 18:56:00,39.4,25.9,29.96,SE,135,3.4,4.5,58,0.00,,,0.08,WUHU216HW,2013-01-19 23:56:00,
2013-01-19 19:01:00,39.4,26.3,29.96,SE,135,0.4,4.5,59,0.00,,,0.08,WUHU216HW,2013-01-20 00:01:00,
2013-01-19 19:06:00,39.4,26.3,29.95,SE,135,1.3,4.5,59,0.00,,,0.08,WUHU216HW,2013-01-20 00:06:00,
2013-01-19 19:12:00,39.4,26.3,29.96,South,180,2.9,3.1,59,0.00,,,0.08,WUHU216HW,2013-01-20 00:12:00,
2013-01-19 19:17:00,39.2,26.1,29.95,SE,135,2.9,2.9,59,0.00,,,0.08,WUHU216HW,2013-01-20 00:17:00,
2013-01-19 19:22:00,39.2,26.1,29.95,South,180,0.7,3.4,59,0.00,,,0.08,WUHU216HW,2013-01-20 00:22:00,
2013-01-19 19:27:00,39.2,26.1,29.95,WNW,293,1.6,3.4,59,0.00,,,0.08,WUHU216HW,2013-01-20 00:27:00,
2013-01-19 19:32:00,39.2,26.1,29.95,SSE,158,1.3,2.5,59,0.00,,,0.08,WUHU216HW,2013-01-20 00:32:00,
2013-01-19 19:37:00,39.0,26.3,29.95,SSW,203,2.9,4.0,60,0.00,,,0.08,WUHU216HW,2013-01-20 00:37:00,
2013-01-19 19:43:00,39.0,26.3,29.95,ESE,113,1.8,4.0,60,0.00,,,0.08,WUHU216HW,2013-01-20 00:43:00,
2013-01-19 19:48:00,39.0,26.3,29.95,ESE,113,1.3,4.0,60,0.00,,,0.08,WUHU216HW,2013-01-20 00:48:00,
2013-01-19 19:53:00,39.0,26.3,29.95,SSE,158,4.7,4.7,60,0.00,,,0.08,WUHU216HW,2013-01-20 00:53:00,
2013-01-19 19:58:00,39.0,26.3,29.95,SSE,158,2.2,6.3,60,0.01,,,0.09,WUHU216HW,2013-01-20 00:58:00,
2013-01-19 20:03:00,39.0,26.3,29.94,SE,135,0.7,6.3,60,0.01,,,0.09,WUHU216HW,2013-01-20 01:03:00,
2013-01-19 20:08:00,39.0,26.3,29.94,SSE,158,1.3,3.6,60,0.01,,,0.09,WUHU216HW,2013-01-20 01:08:00,
2013-01-19 20:13:00,39.0,26.3,29.94,SE,135,0.4,2.9,60,0.01,,,0.09,WUHU216HW,2013-01-20 01:13:00,
2013-01-19 20:18:00,38.9,26.3,29.94,East,90,3.4,3.4,60,0.01,,,0.09,WUHU216HW,2013-01-20 01:18:00,
2013-01-19 20:24:00,38.9,26.3,29.94,SSE,158,1.1,4.0,60,0.01,,,0.09,WUHU216HW,2013-01-20 01:24:00,
2013-01-19 20:29:00,38.9,26.7,29.93,SE,135,1.3,4.3,61,0.01,,,0.09,WUHU216HW,2013-01-20 01:29:00,
2013-01-19 20:34:00,38.7,26.5,29.93,SSE,158,1.6,4.3,61,0.01,,,0.09,WUHU216HW,2013-01-20 01:34:00,
2013-01-19 20:39:00,38.7,26.5,29.93,North,0,1.3,1.8,61,0.01,,,0.09,WUHU216HW,2013-01-20 01:39:00,
2013-01-19 20:44:00,38.7,26.5,29.93,ESE,113,1.3,2.9,61,0.01,,,0.09,WUHU216HW,2013-01-20 01:44:00,
2013-01-19 20:49:00,38.5,26.3,29.92,SSE,158,2.0,2.9,61,0.01,,,0.09,WUHU216HW,2013-01-20 01:49:00,
2013-01-19 20:54:00,38.5,26.3,29.92,SE,135,1.1,4.9,61,0.00,,,0.09,WUHU216HW,2013-01-20 01:54:00,
2013-01-19 21:00:00,38.5,26.7,29.92,SSE,158,2.7,4.9,62,0.00,,,0.09,WUHU216HW,2013-01-20 02:00:00,
2013-01-19 21:05:00,38.5,26.7,29.92,ESE,113,1.1,2.9,62,0.00,,,0.09,WUHU216HW,2013-01-20 02:05:00,
2013-01-19 21:10:00,38.5,26.7,29.92,SSW,203,1.8,3.6,62,0.00,,,0.09,WUHU216HW,2013-01-20 02:10:00,
2013-01-19 21:15:00,38.5,26.7,29.92,SSW,203,1.8,4.0,62,0.00,,,0.09,WUHU216HW,2013-01-20 02:15:00,
2013-01-19 21:21:00,38.5,26.7,29.92,SSW,203,2.7,4.9,62,0.00,,,0.09,WUHU216HW,2013-01-20 02:21:00,
2013-01-19 21:26:00,38.3,26.5,29.91,ENE,68,0.7,4.9,62,0.00,,,0.09,WUHU216HW,2013-01-20 02:26:00,
2013-01-19 21:32:00,38.3,26.5,29.91,ESE,113,1.1,3.6,62,0.00,,,0.09,WUHU216HW,2013-01-20 02:32:00,
2013-01-19 21:37:00,38.3,26.5,29.90,SE,135,2.5,4.0,62,0.00,,,0.09,WUHU216HW,2013-01-20 02:37:00,
2013-01-19 21:42:00,38.3,26.5,29.90,ESE,113,1.8,5.4,62,0.00,,,0.09,WUHU216HW,2013-01-20 02:42:00,
2013-01-19 21:48:00,38.3,26.5,29.90,SSE,158,2.5,5.4,62,0.00,,,0.09,WUHU216HW,2013-01-20 02:48:00,
2013-01-19 21:53:00,38.1,26.3,29.90,SSE,158,1.8,4.7,62,0.00,,,0.09,WUHU216HW,2013-01-20 02:53:00,
2013-01-19 21:58:00,38.1,26.3,29.90,SW,225,0.4,3.1,62,0.00,,,0.09,WUHU216HW,2013-01-20 02:58:00,
2013-01-19 22:03:00,38.1,26.3,29.90,South,180,0.7,2.5,62,0.00,,,0.09,WUHU216HW,2013-01-20 03:03:00,
2013-01-19 22:09:00,38.0,26.6,29.89,ESE,113,1.1,2.5,63,0.00,,,0.09,WUHU216HW,2013-01-20 03:09:00,
2013-01-19 22:14:00,38.0,26.6,29.89,SE,135,1.1,4.7,63,0.00,,,0.09,WUHU216HW,2013-01-20 03:14:00,
2013-01-19 22:19:00,38.0,26.6,29.89,SSW,203,0.9,4.7,63,0.00,,,0.09,WUHU216HW,2013-01-20 03:19:00,
2013-01-19 22:24:00,38.0,26.6,29.89,South,180,6.3,6.3,63,0.00,,,0.09,WUHU216HW,2013-01-20 03:24:00,
2013-01-19 22:29:00,38.0,26.6,29.88,SSE,158,3.1,6.3,63,0.00,,,0.09,WUHU216HW,2013-01-20 03:29:00,
2013-01-19 22:35:00,38.0,26.6,29.88,WSW,248,1.1,6.3,63,0.00,,,0.09,WUHU216HW,2013-01-20 03:35:00,
2013-01-19 22:40:00,37.8,26.4,29.88,NNW,338,2.5,5.4,63,0.00,,,0.09,WUHU216HW,2013-01-20 03:40:00,
2013-01-19 22:45:00,37.8,26.4,29.87,NE,45,1.6,5.4,63,0.00,,,0.09,WUHU216HW,2013-01-20 03:45:00,
2013-01-19 22:50:00,37.8,26.4,29.87,ESE,113,1.1,4.7,63,0.00,,,0.09,WUHU216HW,2013-01-20 03:50:00,
2013-01-19 22:55:00,37.6,26.2,29.87,East,90,0.4,4.7,63,0.00,,,0.09,WUHU216HW,2013-01-20 03:55:00,
2013-01-19 23:00:00,37.6,26.2,29.87,SE,135,2.5,4.3,63,0.00,,,0.09,WUHU216HW,2013-01-20 04:00:00,
2013-01-19 23:05:00,37.4,26.0,29.87,SSW,203,1.1,4.3,63,0.00,,,0.09,WUHU216HW,2013-01-20 04:05:00,
2013-01-19 23:10:00,37.4,26.0,29.87,SE,135,1.1,3.4,63,0.00,,,0.09,WUHU216HW,2013-01-20 04:10:00,
2013-01-19 23:15:00,37.2,25.8,29.86,ESE,113,2.0,3.8,63,0.00,,,0.09,WUHU216HW,2013-01-20 04:15:00,
2013-01-19 23:20:00,37.2,25.8,29.86,ENE,68,0.4,7.6,63,0.00,,,0.09,WUHU216HW,2013-01-20 04:20:00,
2013-01-19 23:25:00,37.1,25.7,29.86,ENE,68,0.7,7.6,63,0.00,,,0.09,WUHU216HW,2013-01-20 04:25:00,
2013-01-19 23:31:00,36.9,25.5,29.86,SSE,158,3.4,4.5,63,0.00,,,0.09,WUHU216HW,2013-01-20 04:31:00,
2013-01-19 23:36:00,36.9,25.5,29.85,SE,135,2.2,3.4,63,0.00,,,0.09,WUHU216HW,2013-01-20 04:36:00,
2013-01-19 23:41:00,36.7,25.7,29.85,SE,135,1.1,3.4,64,0.00,,,0.09,WUHU216HW,2013-01-20 04:41:00,
2013-01-19 23:46:00,36.7,25.7,29.84,SSE,158,0.9,5.4,64,0.00,,,0.09,WUHU216HW,2013-01-20 04:46:00,
2013-01-19 23:51:00,36.5,25.5,29.84,ESE,113,1.6,6.3,64,0.00,,,0.09,WUHU216HW,2013-01-20 04:51:00,
2013-01-19 23:57:00,36.5,25.5,29.84,East,90,1.8,6.3,64,0.00,,,0.09,WUHU216HW,2013-01-20 04:57:00,